Time;durP1;ratioP1;P1;durP2;ratioP2;P2;SDS_P1;SDS_P2;PMS_P1;PMS_P2;Temp;Humidity;BMP_temperature;BMP_pressure;BME280_temperature;BME280_humidity;BME280_pressure;Samples;Min_cycle;Max_cycle;Signal;HPM_P1;HPM_P2
2023/12/02 00:01:58;;;;;;;;;;;-0.30;99.90;;;;;;5053651;28;20272;-74
2023/12/02 00:04:24;;;;;;;;;;;-0.60;99.90;;;;;;5053911;28;20280;-75
2023/12/02 00:06:50;;;;;;;;;;;-0.60;99.90;;;;;;5055068;28;20441;-75
2023/12/02 00:09:16;;;;;;;;;;;-0.60;99.90;;;;;;5053242;28;19924;-75
2023/12/02 00:11:41;;;;;;;;;;;-0.60;99.90;;;;;;5056067;28;19995;-75
2023/12/02 00:14:07;;;;;;;;;;;-0.60;99.90;;;;;;5055166;28;19924;-75
2023/12/02 00:16:32;;;;;;;;;;;-0.50;99.90;;;;;;5051180;28;19979;-75
2023/12/02 00:18:58;;;;;;;;;;;-0.50;99.90;;;;;;5050947;28;19929;-75
2023/12/02 00:21:23;;;;;;;;;;;-0.50;99.90;;;;;;5049957;28;19947;-75
2023/12/02 00:23:49;;;;;;;;;;;-0.50;99.90;;;;;;5050316;28;20021;-75
2023/12/02 00:26:14;;;;;;;;;;;0.20;99.90;;;;;;5052280;28;19933;-75
2023/12/02 00:28:40;;;;;;;;;;;0.60;99.90;;;;;;5053090;28;19939;-75
2023/12/02 00:31:05;;;;;;;;;;;-0.60;99.90;;;;;;5070272;28;19924;-75
2023/12/02 00:33:31;;;;;;;;;;;-0.60;99.90;;;;;;5071730;28;19943;-75
2023/12/02 00:35:56;;;;;;;;;;;-0.70;99.90;;;;;;5055482;28;19955;-75
2023/12/02 00:38:22;;;;;;;;;;;-0.10;99.90;;;;;;5054136;28;19924;-75
2023/12/02 00:40:48;;;;;;;;;;;-0.70;99.90;;;;;;5054849;28;19929;-75
2023/12/02 00:43:13;;;;;;;;;;;-0.60;99.90;;;;;;5055172;28;20350;-75
2023/12/02 00:45:39;;;;;;;;;;;-0.60;99.90;;;;;;5054436;28;19924;-75
2023/12/02 00:48:07;;;;;;;;;;;-0.60;99.90;;;;;;5072716;28;19931;-75
2023/12/02 00:50:33;;;;;;;;;;;-0.60;99.90;;;;;;5055499;28;19928;-75
2023/12/02 00:52:59;;;;;;;;;;;-0.60;99.90;;;;;;5054207;28;20395;-75
2023/12/02 00:55:24;;;;;;;;;;;-0.60;99.90;;;;;;5054912;28;19931;-75
2023/12/02 00:57:50;;;;;;;;;;;0.10;99.90;;;;;;5072922;28;19928;-75
2023/12/02 01:00:15;;;;;;;;;;;-0.70;99.90;;;;;;5053993;28;19926;-75
2023/12/02 01:02:41;;;;;;;;;;;-0.60;99.90;;;;;;5054861;28;19924;-75
2023/12/02 01:05:10;;;;;;;;;;;-0.60;99.90;;;;;;5054376;28;20030;-75
2023/12/02 01:07:35;;;;;;;;;;;-0.60;99.90;;;;;;5055144;28;19921;-75
2023/12/02 01:10:01;;;;;;;;;;;-0.60;99.90;;;;;;5054612;28;19977;-75
2023/12/02 01:12:30;;;;;;;;;;;-0.60;99.90;;;;;;5054151;28;19930;-75
2023/12/02 01:15:01;;;;;;;;;;;-0.50;99.90;;;;;;5072631;28;19936;-74
2023/12/02 01:17:27;;;;;;;;;;;-0.50;99.90;;;;;;5076195;28;19931;-74
2023/12/02 01:19:52;;;;;;;;;;;-0.60;99.90;;;;;;5058354;28;19924;-75
2023/12/02 01:22:18;;;;;;;;;;;-0.20;99.90;;;;;;5058571;28;19975;-75
2023/12/02 01:24:43;;;;;;;;;;;-0.50;99.90;;;;;;5058858;28;20288;-75
2023/12/02 01:27:09;;;;;;;;;;;-0.50;99.90;;;;;;5057402;28;19928;-75
2023/12/02 01:29:37;;;;;;;;;;;-0.50;99.90;;;;;;5058290;28;19968;-75
2023/12/02 01:32:03;;;;;;;;;;;-0.50;99.90;;;;;;5058268;28;19971;-75
2023/12/02 01:34:28;;;;;;;;;;;-0.50;99.90;;;;;;5058108;28;19928;-74
2023/12/02 01:36:56;;;;;;;;;;;-0.50;99.90;;;;;;5058562;28;20015;-75
2023/12/02 01:39:22;;;;;;;;;;;-0.50;99.90;;;;;;5058255;28;20011;-75
2023/12/02 01:41:47;;;;;;;;;;;-0.50;99.90;;;;;;5058170;28;20035;-74
2023/12/02 01:44:14;;;;;;;;;;;-0.50;99.90;;;;;;5057963;28;20007;-75
2023/12/02 01:46:42;;;;;;;;;;;-0.50;99.90;;;;;;5058944;28;20348;-76
2023/12/02 01:49:07;;;;;;;;;;;-0.50;99.90;;;;;;5075674;28;20272;-75
2023/12/02 01:51:34;;;;;;;;;;;-0.50;99.90;;;;;;5057542;28;19971;-75
2023/12/02 01:53:59;;;;;;;;;;;-0.50;99.90;;;;;;5058187;28;19970;-74
2023/12/02 01:56:25;;;;;;;;;;;-0.50;99.90;;;;;;5057496;28;20326;-75
2023/12/02 01:58:51;;;;;;;;;;;-0.50;99.90;;;;;;5058443;28;19972;-75
2023/12/02 02:01:16;;;;;;;;;;;-0.50;99.90;;;;;;5057873;28;20291;-75
2023/12/02 02:03:42;;;;;;;;;;;-0.50;99.90;;;;;;5056982;28;19969;-75
2023/12/02 02:06:11;;;;;;;;;;;-0.50;99.90;;;;;;5057726;28;19925;-75
2023/12/02 02:08:36;;;;;;;;;;;-0.50;99.90;;;;;;5057363;28;20011;-75
2023/12/02 02:11:02;;;;;;;;;;;-0.50;99.90;;;;;;5057689;28;20058;-75
2023/12/02 02:13:28;;;;;;;;;;;-0.50;99.90;;;;;;5058064;28;19947;-75
2023/12/02 02:15:54;;;;;;;;;;;-0.50;99.90;;;;;;5056856;28;19940;-75
2023/12/02 02:18:19;;;;;;;;;;;-0.40;99.90;;;;;;5075466;28;19920;-75
2023/12/02 02:20:52;;;;;;;;;;;-0.40;99.90;;;;;;5058145;28;19931;-75
2023/12/02 02:23:21;;;;;;;;;;;-0.50;99.90;;;;;;5057104;28;19924;-75
2023/12/02 02:25:52;;;;;;;;;;;-0.50;99.90;;;;;;5057755;28;20291;-75
2023/12/02 02:28:27;;;;;;;;;;;-0.50;99.90;;;;;;5074415;28;19948;-75
2023/12/02 02:30:53;;;;;;;;;;;-0.50;99.90;;;;;;5074407;28;19924;-75
2023/12/02 02:33:19;;;;;;;;;;;-0.50;99.90;;;;;;5057232;28;20039;-75
2023/12/02 02:35:44;;;;;;;;;;;-0.50;99.90;;;;;;5075492;28;19928;-76
2023/12/02 02:38:10;;;;;;;;;;;-0.50;99.90;;;;;;5073872;28;20441;-75
2023/12/02 02:40:36;;;;;;;;;;;-0.50;99.90;;;;;;5057593;28;19925;-75
2023/12/02 02:43:05;;;;;;;;;;;-0.40;99.90;;;;;;5056827;28;19924;-72
2023/12/02 02:45:31;;;;;;;;;;;-0.40;99.90;;;;;;5056926;28;20024;-72
2023/12/02 02:47:57;;;;;;;;;;;-0.40;99.90;;;;;;5057037;28;19925;-72
2023/12/02 02:50:22;;;;;;;;;;;-0.40;99.90;;;;;;5073194;28;19931;-72
2023/12/02 02:52:48;;;;;;;;;;;-0.40;99.90;;;;;;5056186;28;19990;-72
2023/12/02 02:55:14;;;;;;;;;;;-0.30;99.90;;;;;;5073733;28;19928;-73
2023/12/02 02:57:40;;;;;;;;;;;-0.30;99.90;;;;;;5074357;28;20743;-73
2023/12/02 03:00:09;;;;;;;;;;;-0.30;99.90;;;;;;5074657;28;19924;-73
2023/12/02 03:02:38;;;;;;;;;;;-0.30;99.90;;;;;;5057003;28;19935;-73
2023/12/02 03:05:07;;;;;;;;;;;-0.30;99.90;;;;;;5055422;28;19932;-73
2023/12/02 03:07:32;;;;;;;;;;;-0.30;99.90;;;;;;5056926;28;20397;-73
2023/12/02 03:09:59;;;;;;;;;;;0.70;99.90;;;;;;5074763;28;20003;-73
2023/12/02 03:12:25;;;;;;;;;;;-1.10;99.90;;;;;;5056042;28;19924;-74
2023/12/02 03:14:51;;;;;;;;;;;-0.10;99.90;;;;;;5074912;28;20284;-73
2023/12/02 03:17:19;;;;;;;;;;;-0.30;99.90;;;;;;5072436;28;19933;-72
2023/12/02 03:19:46;;;;;;;;;;;-0.20;99.90;;;;;;5060425;28;19925;-73
2023/12/02 03:22:12;;;;;;;;;;;0.10;99.90;;;;;;5055930;28;19925;-73
2023/12/02 03:24:37;;;;;;;;;;;0.40;99.90;;;;;;5056187;28;19931;-73
2023/12/02 03:27:03;;;;;;;;;;;0.00;99.90;;;;;;5055769;28;19924;-73
2023/12/02 03:29:29;;;;;;;;;;;-0.30;99.90;;;;;;5074607;28;19936;-73
2023/12/02 03:31:54;;;;;;;;;;;-0.20;99.90;;;;;;5056505;28;19962;-73
2023/12/02 03:34:20;;;;;;;;;;;-0.20;99.90;;;;;;5072799;28;20379;-73
2023/12/02 03:36:46;;;;;;;;;;;-0.20;99.90;;;;;;5056193;28;19932;-73
2023/12/02 03:39:15;;;;;;;;;;;-0.20;99.90;;;;;;5055037;28;19970;-73
2023/12/02 03:41:41;;;;;;;;;;;0.90;99.90;;;;;;5055726;28;19924;-73
2023/12/02 03:44:06;;;;;;;;;;;-0.20;99.90;;;;;;5055721;28;19924;-72
2023/12/02 03:46:34;;;;;;;;;;;-0.20;99.90;;;;;;5073380;28;19931;-75
2023/12/02 03:48:59;;;;;;;;;;;-0.20;99.90;;;;;;5055196;28;19928;-76
2023/12/02 03:51:25;;;;;;;;;;;-0.30;99.90;;;;;;5056839;28;19969;-75
2023/12/02 03:53:50;;;;;;;;;;;0.40;99.90;;;;;;5056484;28;19925;-75
2023/12/02 03:56:16;;;;;;;;;;;-0.30;99.90;;;;;;5055419;28;20017;-76
2023/12/02 03:58:41;;;;;;;;;;;-0.30;99.90;;;;;;5055760;28;20021;-75
2023/12/02 04:01:07;;;;;;;;;;;-0.30;99.90;;;;;;5055157;28;19978;-75
2023/12/02 04:03:33;;;;;;;;;;;-0.30;99.90;;;;;;5056132;28;20462;-75
2023/12/02 04:05:59;;;;;;;;;;;-0.30;99.90;;;;;;5055849;28;19928;-75
2023/12/02 04:08:25;;;;;;;;;;;-0.40;99.90;;;;;;5054856;28;19925;-75
2023/12/02 04:10:50;;;;;;;;;;;-0.40;99.90;;;;;;5054740;28;19924;-75
2023/12/02 04:13:16;;;;;;;;;;;-0.40;99.90;;;;;;5054817;28;20269;-75
2023/12/02 04:15:41;;;;;;;;;;;-0.50;99.90;;;;;;5054780;28;19925;-75
2023/12/02 04:18:07;;;;;;;;;;;-0.50;99.90;;;;;;5055555;28;19947;-75
2023/12/02 04:20:32;;;;;;;;;;;-0.50;99.90;;;;;;5055640;28;19950;-75
2023/12/02 04:22:58;;;;;;;;;;;-0.50;99.90;;;;;;5072561;28;19928;-75
2023/12/02 04:25:24;;;;;;;;;;;-0.50;99.90;;;;;;5073512;28;19991;-75
2023/12/02 04:27:49;;;;;;;;;;;-0.50;99.90;;;;;;5073067;28;20006;-75
2023/12/02 04:30:15;;;;;;;;;;;-0.60;99.90;;;;;;5054117;28;19924;-75
2023/12/02 04:32:44;;;;;;;;;;;-0.70;99.90;;;;;;5055545;28;19998;-75
2023/12/02 04:35:10;;;;;;;;;;;-0.70;99.90;;;;;;5055051;28;20355;-75
2023/12/02 04:37:35;;;;;;;;;;;-0.10;99.90;;;;;;5054311;28;19925;-75
2023/12/02 04:40:04;;;;;;;;;;;-0.60;99.90;;;;;;5054648;28;19925;-75
2023/12/02 04:42:30;;;;;;;;;;;-0.80;99.90;;;;;;5055466;28;19924;-75
2023/12/02 04:44:55;;;;;;;;;;;-0.70;99.90;;;;;;5054678;28;19924;-75
2023/12/02 04:47:21;;;;;;;;;;;-0.70;99.90;;;;;;5055178;28;20395;-75
2023/12/02 04:49:46;;;;;;;;;;;-0.70;99.90;;;;;;5054765;28;19999;-74
2023/12/02 04:52:15;;;;;;;;;;;-0.60;99.90;;;;;;5053369;28;19924;-75
2023/12/02 04:54:41;;;;;;;;;;;-0.30;99.90;;;;;;5072905;28;20372;-75
2023/12/02 04:57:15;;;;;;;;;;;-0.70;99.90;;;;;;5055186;28;19943;-75
2023/12/02 04:59:44;;;;;;;;;;;-0.60;99.90;;;;;;5055094;28;19924;-75
2023/12/02 05:02:09;;;;;;;;;;;-0.60;99.90;;;;;;5054913;28;19967;-75
2023/12/02 05:04:35;;;;;;;;;;;-0.60;99.90;;;;;;5054492;28;20776;-75
2023/12/02 05:07:03;;;;;;;;;;;-0.60;99.90;;;;;;5054478;28;19929;-75
2023/12/02 05:09:29;;;;;;;;;;;-0.60;99.90;;;;;;5054991;28;19935;-75
2023/12/02 05:11:55;;;;;;;;;;;-0.20;99.90;;;;;;5053992;28;19924;-75
2023/12/02 05:14:21;;;;;;;;;;;-0.60;99.90;;;;;;5054236;28;20429;-75
2023/12/02 05:16:46;;;;;;;;;;;-0.60;99.90;;;;;;5054368;28;19928;-74
2023/12/02 05:19:12;;;;;;;;;;;-0.50;99.90;;;;;;5053873;28;19931;-74
2023/12/02 05:21:38;;;;;;;;;;;-0.50;99.90;;;;;;5072315;28;19967;-73
2023/12/02 05:24:03;;;;;;;;;;;-0.50;99.90;;;;;;5053834;28;20391;-73
2023/12/02 05:26:29;;;;;;;;;;;-0.50;99.90;;;;;;5071996;28;19925;-73
2023/12/02 05:28:54;;;;;;;;;;;-0.50;99.90;;;;;;5053857;28;19924;-73
2023/12/02 05:31:21;;;;;;;;;;;-0.50;99.90;;;;;;5054336;28;19925;-73
2023/12/02 05:33:47;;;;;;;;;;;-0.50;99.90;;;;;;5053716;28;19924;-73
2023/12/02 05:36:13;;;;;;;;;;;-0.50;99.90;;;;;;5054483;28;20261;-73
2023/12/02 05:38:41;;;;;;;;;;;-0.40;99.90;;;;;;5053961;28;20388;-73
2023/12/02 05:41:07;;;;;;;;;;;-0.40;99.90;;;;;;5053124;28;19928;-73
2023/12/02 05:43:35;;;;;;;;;;;-0.50;99.90;;;;;;5054281;28;19925;-73
2023/12/02 05:46:01;;;;;;;;;;;-0.50;99.90;;;;;;5052743;28;19924;-73
2023/12/02 05:48:26;;;;;;;;;;;-0.40;99.90;;;;;;5051832;28;19925;-73
2023/12/02 05:50:55;;;;;;;;;;;-0.50;99.90;;;;;;5052917;28;19928;-74
2023/12/02 05:53:21;;;;;;;;;;;-0.40;99.90;;;;;;5052385;28;19924;-73
2023/12/02 05:55:46;;;;;;;;;;;-0.40;99.90;;;;;;5052122;28;19966;-73
2023/12/02 05:58:12;;;;;;;;;;;-0.40;99.90;;;;;;5053291;28;19924;-73
2023/12/02 06:00:37;;;;;;;;;;;-0.40;99.90;;;;;;5053822;28;19929;-73
2023/12/02 06:03:03;;;;;;;;;;;-0.40;99.90;;;;;;5056590;28;19972;-73
2023/12/02 06:05:31;;;;;;;;;;;-0.40;99.90;;;;;;5058334;28;19950;-73
2023/12/02 06:07:57;;;;;;;;;;;-0.40;99.90;;;;;;5057460;28;19974;-73
2023/12/02 06:10:22;;;;;;;;;;;0.00;99.90;;;;;;5074494;28;19951;-73
2023/12/02 06:12:48;;;;;;;;;;;-0.30;99.90;;;;;;5057993;28;19931;-73
2023/12/02 06:15:13;;;;;;;;;;;1.00;99.90;;;;;;5056737;28;19931;-73
2023/12/02 06:17:39;;;;;;;;;;;-0.40;99.90;;;;;;5075889;28;19924;-73
2023/12/02 06:20:06;;;;;;;;;;;-0.40;99.90;;;;;;5074936;28;19977;-73
2023/12/02 06:22:34;;;;;;;;;;;-0.40;99.90;;;;;;5057143;28;19993;-73
2023/12/02 06:25:00;;;;;;;;;;;-0.40;99.90;;;;;;5057575;28;20371;-73
2023/12/02 06:27:26;;;;;;;;;;;-0.40;99.90;;;;;;5057987;28;19931;-73
2023/12/02 06:29:51;;;;;;;;;;;-0.40;99.90;;;;;;5074870;28;19931;-73
2023/12/02 06:32:23;;;;;;;;;;;-0.30;99.90;;;;;;5057206;28;19924;-74
2023/12/02 06:34:49;;;;;;;;;;;-0.30;99.90;;;;;;5058098;28;20310;-74
2023/12/02 06:37:17;;;;;;;;;;;-0.30;99.90;;;;;;5056795;28;20007;-73
2023/12/02 06:39:43;;;;;;;;;;;-0.30;99.90;;;;;;5057998;28;19971;-70
2023/12/02 06:42:08;;;;;;;;;;;0.20;99.90;;;;;;5057856;28;20276;-70
2023/12/02 06:44:34;;;;;;;;;;;-0.20;99.90;;;;;;5074857;28;20291;-71
2023/12/02 06:46:59;;;;;;;;;;;-0.20;99.90;;;;;;5074290;28;20371;-70
2023/12/02 06:49:25;;;;;;;;;;;-0.20;99.90;;;;;;5057205;28;19924;-71
2023/12/02 06:51:50;;;;;;;;;;;-0.20;99.90;;;;;;5056445;28;19925;-70
2023/12/02 06:54:16;;;;;;;;;;;-0.10;99.90;;;;;;5056876;28;19925;-71
2023/12/02 06:56:41;;;;;;;;;;;0.40;99.90;;;;;;5056097;28;19973;-71
2023/12/02 06:59:07;;;;;;;;;;;-0.10;99.90;;;;;;5055892;28;19967;-71
2023/12/02 07:01:33;;;;;;;;;;;-0.10;99.90;;;;;;5057404;28;19925;-71
2023/12/02 07:03:59;;;;;;;;;;;-0.10;99.90;;;;;;5055453;28;19982;-71
2023/12/02 07:06:25;;;;;;;;;;;-0.10;99.90;;;;;;5061181;28;19932;-71
2023/12/02 07:08:54;;;;;;;;;;;-0.10;99.90;;;;;;5038216;28;19925;-70
2023/12/02 07:11:23;;;;;;;;;;;0.00;99.90;;;;;;5043495;28;19925;-71
2023/12/02 07:13:48;;;;;;;;;;;0.00;99.90;;;;;;5050554;28;19931;-71
2023/12/02 07:16:14;;;;;;;;;;;-0.10;99.90;;;;;;5051290;28;19924;-71
2023/12/02 07:18:39;;;;;;;;;;;0.00;99.90;;;;;;5061470;28;19924;-71
2023/12/02 07:21:05;;;;;;;;;;;0.00;99.90;;;;;;5076965;28;20303;-71
2023/12/02 07:23:31;;;;;;;;;;;0.00;99.90;;;;;;5065658;28;19925;-72
2023/12/02 07:25:57;;;;;;;;;;;0.20;99.90;;;;;;5066122;28;19971;-71
2023/12/02 07:28:26;;;;;;;;;;;0.00;99.90;;;;;;5066213;28;19980;-71
2023/12/02 07:30:51;;;;;;;;;;;1.30;99.90;;;;;;5067048;28;19953;-72
2023/12/02 07:33:20;;;;;;;;;;;0.10;99.90;;;;;;5066399;28;20096;-73
2023/12/02 07:35:46;;;;;;;;;;;0.10;99.90;;;;;;5065341;28;19924;-69
2023/12/02 07:38:13;;;;;;;;;;;0.30;99.90;;;;;;5060380;28;19931;-70
2023/12/02 07:40:38;;;;;;;;;;;0.20;99.90;;;;;;5078995;28;19977;-71
2023/12/02 07:43:04;;;;;;;;;;;0.20;99.90;;;;;;5067184;28;19928;-73
2023/12/02 07:45:29;;;;;;;;;;;0.30;99.90;;;;;;5057856;28;19930;-71
2023/12/02 07:47:55;;;;;;;;;;;0.20;99.90;;;;;;5061616;28;19977;-74
2023/12/02 07:50:20;;;;;;;;;;;0.30;99.90;;;;;;5058997;28;19985;-71
2023/12/02 07:52:46;;;;;;;;;;;0.30;99.90;;;;;;5056348;28;20371;-72
2023/12/02 07:55:12;;;;;;;;;;;0.30;99.90;;;;;;5055284;28;19924;-72
2023/12/02 07:57:37;;;;;;;;;;;0.40;99.90;;;;;;5073578;28;19924;-72
2023/12/02 08:00:03;;;;;;;;;;;0.40;99.90;;;;;;5081419;28;20101;-73
2023/12/02 08:02:32;;;;;;;;;;;0.40;99.90;;;;;;5064521;28;19976;-72
2023/12/02 08:04:58;;;;;;;;;;;0.50;99.90;;;;;;5065515;28;19924;-74
2023/12/02 08:07:24;;;;;;;;;;;0.50;99.90;;;;;;5056204;28;19974;-73
2023/12/02 08:09:49;;;;;;;;;;;0.60;99.90;;;;;;5055714;28;19929;-73
2023/12/02 08:12:16;;;;;;;;;;;0.60;99.90;;;;;;5054603;28;20215;-73
2023/12/02 08:14:42;;;;;;;;;;;0.70;99.90;;;;;;5072812;28;19928;-71
2023/12/02 08:17:10;;;;;;;;;;;0.70;99.90;;;;;;5055287;28;19970;-71
2023/12/02 08:19:36;;;;;;;;;;;0.80;99.90;;;;;;5073305;28;20037;-72
2023/12/02 08:22:02;;;;;;;;;;;0.80;99.90;;;;;;5054503;28;19930;-72
2023/12/02 08:24:28;;;;;;;;;;;0.80;99.90;;;;;;5054985;28;19928;-72
2023/12/02 08:26:53;;;;;;;;;;;0.50;99.90;;;;;;5055128;28;19978;-70
2023/12/02 08:29:19;;;;;;;;;;;1.10;99.90;;;;;;5053954;28;20089;-74
2023/12/02 08:31:44;;;;;;;;;;;1.00;99.90;;;;;;5073585;28;19928;-76
2023/12/02 08:34:10;;;;;;;;;;;1.40;99.90;;;;;;5054936;28;20403;-69
2023/12/02 08:36:35;;;;;;;;;;;1.10;99.90;;;;;;5053638;28;19925;-71
2023/12/02 08:39:04;;;;;;;;;;;1.10;99.90;;;;;;5072746;28;19978;-72
2023/12/02 08:41:30;;;;;;;;;;;1.20;99.90;;;;;;5055616;28;19924;-73
2023/12/02 08:43:56;;;;;;;;;;;1.20;99.90;;;;;;5053731;28;20372;-71
2023/12/02 08:46:21;;;;;;;;;;;1.30;99.90;;;;;;5053579;28;20398;-76
2023/12/02 08:48:47;;;;;;;;;;;1.30;99.90;;;;;;5063676;28;19932;-74
2023/12/02 08:51:12;;;;;;;;;;;1.30;99.90;;;;;;5071494;28;19924;-74
2023/12/02 08:53:38;;;;;;;;;;;1.40;99.90;;;;;;5055252;28;19925;-74
2023/12/02 08:56:04;;;;;;;;;;;1.40;99.90;;;;;;5054566;28;19921;-74
2023/12/02 08:58:29;;;;;;;;;;;1.50;99.90;;;;;;5053409;28;19976;-75
2023/12/02 09:00:55;;;;;;;;;;;1.50;99.90;;;;;;5054582;28;19974;-75
2023/12/02 09:03:21;;;;;;;;;;;1.60;99.90;;;;;;5053748;28;19970;-76
2023/12/02 09:05:46;;;;;;;;;;;1.60;99.90;;;;;;5054164;28;19978;-77
2023/12/02 09:08:12;;;;;;;;;;;1.60;99.90;;;;;;5054234;28;19925;-76
2023/12/02 09:10:37;;;;;;;;;;;1.70;99.90;;;;;;5054051;28;19932;-78
2023/12/02 09:13:26;;;;;;;;;;;1.70;99.90;;;;;;5053970;28;19975;-74
2023/12/02 09:15:52;;;;;;;;;;;1.80;99.90;;;;;;5039243;28;20376;-72
2023/12/02 09:18:28;;;;;;;;;;;1.80;99.90;;;;;;5053674;28;19930;-74
2023/12/02 09:20:55;;;;;;;;;;;1.90;99.90;;;;;;5053441;28;19931;-71
2023/12/02 09:23:23;;;;;;;;;;;2.00;99.90;;;;;;5058974;28;19947;-73
2023/12/02 09:25:51;;;;;;;;;;;2.00;99.90;;;;;;5053705;28;19929;-74
2023/12/02 09:28:16;;;;;;;;;;;2.10;99.90;;;;;;5054716;28;19924;-78
2023/12/02 09:30:55;;;;;;;;;;;2.20;99.90;;;;;;5054907;28;19924;-76
2023/12/02 09:33:21;;;;;;;;;;;2.40;99.90;;;;;;5053011;28;20355;-77
2023/12/02 09:35:50;;;;;;;;;;;2.70;99.90;;;;;;5054952;28;19968;-74
2023/12/02 09:38:16;;;;;;;;;;;3.30;99.90;;;;;;5057438;28;20299;-72
2023/12/02 09:40:42;;;;;;;;;;;2.90;99.90;;;;;;5056616;28;19931;-72
2023/12/02 09:43:13;;;;;;;;;;;3.10;99.90;;;;;;5064102;28;19924;-78
2023/12/02 09:45:44;;;;;;;;;;;3.10;99.90;;;;;;5057663;28;20482;-73
2023/12/02 09:48:27;;;;;;;;;;;3.10;99.90;;;;;;5058062;28;19969;-79
2023/12/02 09:51:08;;;;;;;;;;;3.10;99.90;;;;;;5075729;28;19928;-72
2023/12/02 09:53:33;;;;;;;;;;;3.10;99.90;;;;;;5057532;28;19925;-76
2023/12/02 09:56:01;;;;;;;;;;;3.10;99.90;;;;;;5058028;28;20019;-74
2023/12/02 09:58:30;;;;;;;;;;;3.10;99.90;;;;;;5057783;28;19925;-72
2023/12/02 10:01:13;;;;;;;;;;;3.80;99.90;;;;;;5057337;28;19932;-73
2023/12/02 10:03:48;;;;;;;;;;;3.20;99.90;;;;;;5054949;28;20380;-71
2023/12/02 10:06:32;;;;;;;;;;;3.30;99.90;;;;;;5073269;28;19925;-75
2023/12/02 10:09:07;;;;;;;;;;;3.50;99.90;;;;;;5063656;28;19925;-79
2023/12/02 10:11:56;;;;;;;;;;;3.70;99.90;;;;;;5047833;28;20394;-74
2023/12/02 10:14:22;;;;;;;;;;;3.80;99.90;;;;;;5033048;28;19924;-71
2023/12/02 10:16:50;;;;;;;;;;;3.80;99.90;;;;;;5056745;28;20390;-72
2023/12/02 10:19:21;;;;;;;;;;;4.00;99.90;;;;;;5056536;28;20036;-74
2023/12/02 10:21:49;;;;;;;;;;;3.90;99.90;;;;;;5061359;28;20338;-72
2023/12/02 10:24:18;;;;;;;;;;;3.90;99.90;;;;;;5047670;28;20360;-73
2023/12/02 10:26:58;;;;;;;;;;;3.90;99.90;;;;;;5055463;28;19956;-75
2023/12/02 10:29:49;;;;;;;;;;;3.90;99.90;;;;;;5040743;28;19939;-78
2023/12/02 10:32:29;;;;;;;;;;;3.80;99.90;;;;;;5043341;28;19924;-80
2023/12/02 10:35:07;;;;;;;;;;;3.80;99.90;;;;;;5050837;28;20011;-74
2023/12/02 10:37:36;;;;;;;;;;;3.70;99.90;;;;;;5057125;28;20261;-71
2023/12/02 10:40:04;;;;;;;;;;;3.70;99.90;;;;;;5057110;28;20015;-72
2023/12/02 10:42:32;;;;;;;;;;;3.80;99.90;;;;;;5056400;28;19989;-72
2023/12/02 10:45:08;;;;;;;;;;;3.80;99.90;;;;;;5057132;28;19920;-72
2023/12/02 10:47:37;;;;;;;;;;;3.80;99.90;;;;;;5055526;28;20288;-76
2023/12/02 10:50:05;;;;;;;;;;;3.80;99.90;;;;;;5046506;28;19925;-75
2023/12/02 10:52:31;;;;;;;;;;;3.80;99.90;;;;;;5046304;28;19963;-76
2023/12/02 10:54:58;;;;;;;;;;;3.70;99.90;;;;;;5047531;28;19925;-78
2023/12/02 10:57:25;;;;;;;;;;;3.70;99.90;;;;;;5045907;28;19931;-76
2023/12/02 11:00:06;;;;;;;;;;;3.70;99.90;;;;;;5039261;28;20296;-72
2023/12/02 11:02:38;;;;;;;;;;;3.60;99.90;;;;;;5056713;28;19963;-75
2023/12/02 11:05:09;;;;;;;;;;;3.50;99.90;;;;;;5047363;28;20007;-76
2023/12/02 11:07:36;;;;;;;;;;;3.50;99.90;;;;;;5046548;28;20384;-76
2023/12/02 11:10:03;;;;;;;;;;;3.40;99.90;;;;;;5073501;28;19930;-72
2023/12/02 11:12:36;;;;;;;;;;;3.40;99.90;;;;;;5050559;28;20445;-76
2023/12/02 11:15:09;;;;;;;;;;;3.40;99.90;;;;;;5047716;28;19932;-73
2023/12/02 11:17:38;;;;;;;;;;;3.30;99.90;;;;;;5045188;28;20399;-73
2023/12/02 11:20:24;;;;;;;;;;;3.30;99.90;;;;;;5073598;28;19920;-72
2023/12/02 11:22:49;;;;;;;;;;;3.30;99.90;;;;;;5065587;28;19940;-73
2023/12/02 11:25:38;;;;;;;;;;;3.50;99.90;;;;;;5045283;28;19925;-73
2023/12/02 11:28:28;;;;;;;;;;;3.30;99.90;;;;;;5040088;28;19981;-71
2023/12/02 11:31:08;;;;;;;;;;;3.30;99.90;;;;;;5042409;28;19960;-73
2023/12/02 11:33:53;;;;;;;;;;;3.40;99.90;;;;;;5036988;28;19925;-73
2023/12/02 11:36:25;;;;;;;;;;;3.40;99.90;;;;;;5053058;28;20111;-73
2023/12/02 11:39:16;;;;;;;;;;;3.70;99.90;;;;;;5045412;28;20334;-73
2023/12/02 11:42:11;;;;;;;;;;;4.00;99.90;;;;;;5055924;28;19987;-73
2023/12/02 11:44:55;;;;;;;;;;;4.00;99.90;;;;;;5056726;28;19925;-73
2023/12/02 11:47:40;;;;;;;;;;;4.00;99.90;;;;;;5056005;28;20019;-73
2023/12/02 11:50:06;;;;;;;;;;;3.80;99.90;;;;;;5074003;28;19924;-73
2023/12/02 11:52:52;;;;;;;;;;;3.80;99.90;;;;;;5054867;28;19982;-73
2023/12/02 11:55:42;;;;;;;;;;;3.70;99.90;;;;;;5055994;28;19969;-73
2023/12/02 11:58:10;;;;;;;;;;;3.60;99.90;;;;;;5055865;28;19925;-73
2023/12/02 12:00:42;;;;;;;;;;;3.60;99.90;;;;;;5051071;28;19932;-73
2023/12/02 12:03:08;;;;;;;;;;;3.60;99.90;;;;;;5046551;28;19988;-73
2023/12/02 12:05:42;;;;;;;;;;;3.60;99.90;;;;;;5045001;28;19931;-73
2023/12/02 12:08:13;;;;;;;;;;;3.50;99.90;;;;;;5047198;28;19977;-73
2023/12/02 12:10:39;;;;;;;;;;;3.50;99.90;;;;;;5046578;28;19932;-73
2023/12/02 12:13:06;;;;;;;;;;;3.50;99.90;;;;;;5050947;28;20295;-72
2023/12/02 12:15:32;;;;;;;;;;;3.40;99.90;;;;;;5051863;28;20288;-72
2023/12/02 12:17:58;;;;;;;;;;;3.50;99.90;;;;;;5053466;28;19924;-72
2023/12/02 12:20:27;;;;;;;;;;;3.40;99.90;;;;;;5052580;28;20067;-72
2023/12/02 12:22:52;;;;;;;;;;;3.40;99.90;;;;;;5055584;28;19946;-72
2023/12/02 12:25:18;;;;;;;;;;;3.40;99.90;;;;;;5055483;28;19932;-72
2023/12/02 12:27:44;;;;;;;;;;;3.80;99.90;;;;;;5054548;28;19974;-72
2023/12/02 12:30:10;;;;;;;;;;;3.60;99.90;;;;;;5073300;28;19928;-72
2023/12/02 12:32:39;;;;;;;;;;;3.60;99.90;;;;;;5055585;28;19925;-72
2023/12/02 12:35:12;;;;;;;;;;;3.60;99.90;;;;;;5054268;28;19928;-74
2023/12/02 12:37:40;;;;;;;;;;;3.60;99.90;;;;;;5072687;28;19925;-73
2023/12/02 12:40:10;;;;;;;;;;;3.70;99.90;;;;;;5071527;28;20368;-73
2023/12/02 12:42:44;;;;;;;;;;;3.70;99.90;;;;;;5072256;28;20287;-72
2023/12/02 12:45:10;;;;;;;;;;;3.70;99.90;;;;;;5072639;28;19925;-72
2023/12/02 12:47:35;;;;;;;;;;;3.70;99.90;;;;;;5055043;28;20407;-73
2023/12/02 12:50:03;;;;;;;;;;;3.70;99.90;;;;;;5053370;28;19931;-73
2023/12/02 12:52:29;;;;;;;;;;;3.70;99.90;;;;;;5055290;28;19964;-73
2023/12/02 12:54:58;;;;;;;;;;;3.70;99.90;;;;;;5055286;28;20031;-73
2023/12/02 12:57:23;;;;;;;;;;;3.70;99.90;;;;;;5070940;28;19924;-72
2023/12/02 12:59:52;;;;;;;;;;;3.70;99.90;;;;;;5054693;28;19973;-72
2023/12/02 13:02:26;;;;;;;;;;;3.70;99.90;;;;;;5054757;28;19924;-71
2023/12/02 13:05:05;;;;;;;;;;;3.60;99.90;;;;;;5053822;28;19924;-73
2023/12/02 13:07:38;;;;;;;;;;;3.60;99.90;;;;;;5055114;28;20058;-73
2023/12/02 13:10:06;;;;;;;;;;;3.70;99.90;;;;;;5053710;28;20011;-73
2023/12/02 13:12:34;;;;;;;;;;;3.70;99.90;;;;;;5061127;28;19932;-73
2023/12/02 13:15:04;;;;;;;;;;;3.80;99.90;;;;;;5060852;28;20279;-73
2023/12/02 13:17:31;;;;;;;;;;;3.90;99.90;;;;;;5060372;28;19928;-73
2023/12/02 13:19:59;;;;;;;;;;;4.10;99.90;;;;;;5061595;28;19970;-73
2023/12/02 13:22:37;;;;;;;;;;;4.30;99.90;;;;;;5060949;28;19920;-77
2023/12/02 13:25:05;;;;;;;;;;;4.40;99.90;;;;;;5060719;28;20288;-72
2023/12/02 13:27:36;;;;;;;;;;;4.20;99.90;;;;;;5061431;28;19928;-72
2023/12/02 13:30:06;;;;;;;;;;;4.20;99.90;;;;;;5060693;28;19931;-72
2023/12/02 13:32:34;;;;;;;;;;;4.20;99.90;;;;;;5060231;28;19924;-73
2023/12/02 13:35:20;;;;;;;;;;;4.10;99.90;;;;;;5061095;28;19931;-72
2023/12/02 13:37:51;;;;;;;;;;;4.00;99.90;;;;;;5050718;28;20326;-73
2023/12/02 13:40:18;;;;;;;;;;;3.80;99.90;;;;;;5058464;28;20027;-73
2023/12/02 13:42:48;;;;;;;;;;;4.10;99.90;;;;;;5058265;28;19931;-72
2023/12/02 13:45:15;;;;;;;;;;;3.90;99.90;;;;;;5056889;28;19974;-72
2023/12/02 13:48:07;;;;;;;;;;;4.00;99.90;;;;;;5058247;28;19929;-72
2023/12/02 13:50:42;;;;;;;;;;;3.90;99.90;;;;;;5053189;28;20008;-72
2023/12/02 13:53:19;;;;;;;;;;;3.90;99.90;;;;;;5057093;28;19925;-72
2023/12/02 13:55:47;;;;;;;;;;;3.90;99.90;;;;;;5057714;28;19951;-72
2023/12/02 13:58:20;;;;;;;;;;;3.90;99.90;;;;;;5056850;28;19925;-72
2023/12/02 14:01:06;;;;;;;;;;;3.90;99.90;;;;;;5056221;28;19932;-72
2023/12/02 14:03:50;;;;;;;;;;;3.90;99.90;;;;;;5043920;28;20368;-77
2023/12/02 14:06:16;;;;;;;;;;;3.80;99.90;;;;;;5056546;28;20020;-72
2023/12/02 14:08:43;;;;;;;;;;;4.40;99.90;;;;;;5057412;28;20015;-73
2023/12/02 14:11:12;;;;;;;;;;;3.80;99.90;;;;;;5057314;28;19931;-74
2023/12/02 14:13:45;;;;;;;;;;;3.80;99.90;;;;;;5056977;28;20292;-73
2023/12/02 14:16:14;;;;;;;;;;;3.80;99.90;;;;;;5057785;28;19975;-76
2023/12/02 14:18:48;;;;;;;;;;;3.70;99.90;;;;;;5057888;28;19928;-77
2023/12/02 14:21:20;;;;;;;;;;;3.60;99.90;;;;;;5055596;28;19928;-74
2023/12/02 14:24:04;;;;;;;;;;;3.50;99.90;;;;;;5051753;28;19925;-74
2023/12/02 14:26:30;;;;;;;;;;;3.50;99.90;;;;;;5052235;28;19925;-76
2023/12/02 14:29:20;;;;;;;;;;;3.50;99.90;;;;;;5051459;28;20407;-76
2023/12/02 14:31:52;;;;;;;;;;;3.40;99.90;;;;;;5052458;28;19925;-71